createdAt,value
2022-09-07T00:02:08.596Z,94.36
2022-09-07T00:04:35.271Z,94.32
2022-09-07T00:07:01.889Z,94.80
2022-09-07T00:09:28.987Z,94.97
2022-09-07T00:11:55.535Z,95.15
2022-09-07T00:14:22.078Z,94.33
2022-09-07T00:16:48.710Z,94.64
2022-09-07T00:19:15.260Z,94.43
2022-09-07T00:21:41.802Z,94.89
2022-09-07T00:24:08.326Z,95.32
2022-09-07T00:26:35.431Z,95.84
2022-09-07T00:29:04.003Z,95.12
2022-09-07T00:31:31.719Z,94.14
2022-09-07T00:34:00.448Z,94.49
2022-09-07T00:36:27.828Z,94.98
2022-09-07T00:38:54.521Z,94.62
2022-09-07T00:41:22.609Z,95.44
2022-09-07T00:43:57.685Z,95.74
2022-09-07T00:46:31.956Z,95.54
2022-09-07T00:49:09.004Z,95.75
2022-09-07T00:51:57.984Z,95.63
2022-09-07T00:54:39.905Z,95.09
2022-09-07T00:57:07.467Z,94.55
2022-09-07T00:59:42.784Z,95.14
2022-09-07T01:02:09.648Z,95.61
2022-09-07T01:04:36.550Z,96.27
2022-09-07T01:07:03.921Z,95.08
2022-09-07T01:09:31.106Z,96.15
2022-09-07T01:12:00.198Z,95.67
2022-09-07T01:14:31.595Z,96.25
2022-09-07T01:17:03.886Z,95.85
2022-09-07T01:19:57.471Z,96.73
2022-09-07T01:22:35.854Z,96.63
2022-09-07T01:25:17.704Z,97.00
2022-09-07T01:27:58.490Z,97.07
2022-09-07T01:30:25.990Z,96.70
2022-09-07T01:33:25.371Z,97.15
2022-09-07T01:36:17.855Z,97.30
2022-09-07T01:38:52.482Z,96.95
2022-09-07T01:41:32.669Z,96.03
2022-09-07T01:44:17.519Z,96.13
2022-09-07T01:47:01.357Z,95.73
2022-09-07T01:49:27.831Z,95.54
2022-09-07T01:52:02.238Z,95.51
2022-09-07T01:54:43.531Z,95.89
2022-09-07T01:57:19.060Z,96.39
2022-09-07T01:59:50.689Z,95.52
2022-09-07T02:02:23.438Z,95.40
2022-09-07T02:04:52.698Z,94.88
2022-09-07T02:07:25.185Z,95.26
2022-09-07T02:09:57.253Z,96.22
2022-09-07T02:12:36.454Z,96.49
2022-09-07T02:15:10.552Z,96.80
2022-09-07T02:17:43.006Z,97.29
2022-09-07T02:20:18.722Z,97.76
2022-09-07T02:22:52.130Z,97.41
2022-09-07T02:25:24.145Z,96.90
2022-09-07T02:27:56.439Z,96.72
2022-09-07T02:30:23.079Z,96.33
2022-09-07T02:32:49.698Z,95.91
2022-09-07T02:35:16.871Z,95.59
2022-09-07T02:37:44.607Z,96.03
2022-09-07T02:40:12.084Z,96.45
2022-09-07T02:42:39.441Z,95.34
2022-09-07T02:45:09.359Z,95.95
2022-09-07T02:48:03.413Z,96.07
2022-09-07T02:50:53.663Z,95.56
2022-09-07T02:53:38.501Z,95.86
2022-09-07T02:56:46.429Z,96.14
2022-09-07T02:59:29.248Z,96.24
2022-09-07T03:02:05.128Z,96.85
2022-09-07T03:04:47.006Z,96.37
2022-09-07T03:07:21.369Z,96.06
2022-09-07T03:09:53.279Z,96.99
2022-09-07T03:12:19.920Z,97.69
2022-09-07T03:14:46.818Z,96.80
2022-09-07T03:17:17.010Z,96.41
2022-09-07T03:19:43.526Z,97.02
2022-09-07T03:22:10.124Z,97.35
2022-09-07T03:24:37.069Z,97.43
2022-09-07T03:27:03.999Z,97.19
2022-09-07T03:29:31.105Z,95.36
2022-09-07T03:31:57.639Z,94.77
2022-09-07T03:34:24.242Z,95.66
2022-09-07T03:36:50.795Z,95.46
2022-09-07T03:39:20.942Z,95.43
2022-09-07T03:41:47.873Z,95.85
2022-09-07T03:44:14.446Z,96.06
2022-09-07T03:46:41.099Z,97.21
2022-09-07T03:49:07.642Z,96.69
2022-09-07T03:51:34.187Z,95.78
2022-09-07T03:54:00.787Z,96.84
2022-09-07T03:56:27.636Z,95.34
2022-09-07T03:58:55.467Z,94.74
2022-09-07T04:01:24.409Z,95.11
2022-09-07T04:03:51.681Z,95.55
2022-09-07T04:06:19.447Z,94.99
2022-09-07T04:08:46.430Z,95.45
2022-09-07T04:11:15.991Z,96.65
2022-09-07T04:13:43.281Z,95.98
2022-09-07T04:16:18.843Z,95.92
2022-09-07T04:18:45.911Z,96.76
2022-09-07T04:21:12.757Z,96.07
2022-09-07T04:23:40.764Z,95.95
2022-09-07T04:26:12.809Z,95.94
2022-09-07T04:28:39.391Z,96.14
2022-09-07T04:31:06.275Z,96.03
2022-09-07T04:33:34.346Z,95.69
2022-09-07T04:36:01.896Z,95.14
2022-09-07T04:38:29.303Z,95.95
2022-09-07T04:41:06.502Z,96.58
2022-09-07T04:43:33.047Z,96.92
2022-09-07T04:46:03.422Z,96.90
2022-09-07T04:48:30.284Z,96.77
2022-09-07T04:51:05.872Z,97.32
2022-09-07T04:53:33.870Z,96.60
2022-09-07T04:56:00.677Z,95.81
2022-09-07T04:58:27.410Z,96.56
2022-09-07T05:00:54.440Z,97.08
2022-09-07T05:03:21.351Z,96.72
2022-09-07T05:05:48.050Z,97.78
2022-09-07T05:08:14.613Z,96.55
2022-09-07T05:10:50.900Z,96.52
2022-09-07T05:13:17.522Z,96.21
2022-09-07T05:15:44.171Z,96.37
2022-09-07T05:18:10.903Z,95.41
2022-09-07T05:20:37.693Z,96.43
2022-09-07T05:23:04.234Z,97.22
2022-09-07T05:25:31.373Z,98.16
2022-09-07T05:27:57.914Z,97.33
2022-09-07T05:33:11.158Z,96.10
2022-09-07T05:35:37.709Z,96.50
2022-09-07T05:38:04.341Z,96.50
2022-09-07T05:40:32.144Z,95.91
2022-09-07T05:42:59.448Z,95.92
2022-09-07T05:45:26.312Z,96.43
2022-09-07T05:47:54.302Z,96.28
2022-09-07T05:50:20.851Z,96.18
2022-09-07T05:52:48.510Z,95.93
2022-09-07T05:55:29.571Z,95.65
2022-09-07T05:57:56.750Z,96.00
2022-09-07T06:00:24.274Z,95.74
2022-09-07T06:02:50.857Z,95.09
2022-09-07T06:05:17.653Z,95.15
2022-09-07T06:07:48.165Z,95.06
2022-09-07T06:13:02.094Z,95.50
2022-09-07T06:15:28.679Z,94.98
2022-09-07T06:17:55.288Z,95.49
2022-09-07T06:20:21.803Z,95.10
2022-09-07T06:22:48.426Z,95.52
2022-09-07T06:25:15.064Z,95.07
2022-09-07T06:27:41.617Z,95.43
2022-09-07T06:30:08.735Z,94.82
2022-09-07T06:32:46.002Z,94.30
2022-09-07T06:35:13.600Z,94.79
2022-09-07T06:37:40.667Z,95.24
2022-09-07T06:43:55.478Z,95.87
2022-09-07T06:49:09.298Z,95.75
2022-09-07T06:51:35.854Z,97.62
2022-09-07T06:56:49.034Z,96.64
2022-09-07T06:59:15.572Z,96.31
2022-09-07T07:01:42.085Z,97.66
2022-09-07T07:04:08.625Z,96.00
2022-09-07T07:06:39.956Z,95.95
2022-09-07T07:09:08.448Z,96.07
2022-09-07T07:11:37.144Z,95.25
2022-09-07T07:14:04.125Z,95.03
2022-09-07T07:16:30.872Z,92.64
2022-09-07T07:18:58.024Z,91.75
2022-09-07T07:21:24.624Z,88.80
2022-09-07T07:23:52.605Z,86.01
2022-09-07T07:26:21.850Z,84.29
2022-09-07T07:31:26.799Z,82.42
2022-09-07T07:33:54.062Z,81.04
2022-09-07T07:36:23.179Z,80.27
2022-09-07T07:38:59.793Z,79.86
2022-09-07T07:44:18.762Z,78.23
2022-09-07T07:46:51.102Z,76.21
2022-09-07T07:49:18.579Z,76.04
2022-09-07T07:54:34.135Z,77.34
2022-09-07T07:57:00.648Z,76.99
2022-09-07T07:59:27.631Z,77.90
2022-09-07T08:01:54.396Z,77.02
2022-09-07T08:04:21.162Z,77.20
2022-09-07T08:06:47.711Z,76.17
2022-09-07T08:09:14.371Z,76.18
2022-09-07T08:11:41.501Z,77.04
2022-09-07T08:14:08.651Z,76.10
2022-09-07T08:16:36.327Z,74.36
2022-09-07T08:19:03.429Z,74.37
2022-09-07T08:21:30.017Z,72.67
2022-09-07T08:23:56.853Z,72.04
2022-09-07T08:26:23.361Z,70.14
2022-09-07T08:28:49.874Z,67.38
2022-09-07T08:31:17.424Z,65.39
2022-09-07T08:33:44.606Z,64.17
2022-09-07T08:36:16.716Z,61.23
2022-09-07T08:38:43.894Z,60.28
2022-09-07T08:41:40.640Z,59.47
2022-09-07T08:44:18.586Z,60.36
2022-09-07T08:47:22.850Z,59.25
2022-09-07T08:50:07.011Z,58.43
2022-09-07T08:52:45.037Z,58.92
2022-09-07T08:55:21.026Z,60.05
2022-09-07T08:57:56.578Z,59.57
2022-09-07T09:00:23.156Z,59.74
2022-09-07T09:05:43.326Z,57.36
2022-09-07T09:08:45.562Z,58.86
2022-09-07T09:11:46.503Z,59.87
2022-09-07T09:14:27.107Z,62.04
2022-09-07T09:17:09.121Z,63.94
2022-09-07T09:19:57.894Z,65.62
2022-09-07T09:22:28.335Z,65.87
2022-09-07T09:25:05.732Z,66.20
2022-09-07T09:27:32.251Z,68.65
2022-09-07T09:29:58.753Z,66.53
2022-09-07T09:32:33.361Z,64.45
2022-09-07T09:35:11.458Z,65.03
2022-09-07T09:37:39.781Z,68.06
2022-09-07T09:40:09.394Z,70.23
2022-09-07T09:42:38.821Z,72.24
2022-09-07T09:45:19.300Z,69.96
2022-09-07T09:47:51.083Z,69.42
2022-09-07T09:53:27.405Z,70.75
2022-09-07T09:55:54.717Z,69.16
2022-09-07T10:01:35.329Z,69.66
2022-09-07T10:04:25.609Z,68.73
2022-09-07T10:06:58.040Z,67.73
2022-09-07T10:09:40.601Z,66.81
2022-09-07T10:12:22.689Z,66.77
2022-09-07T10:14:49.237Z,66.37
2022-09-07T10:17:31.991Z,65.06
2022-09-07T10:20:22.936Z,67.73
2022-09-07T10:22:52.601Z,65.69
2022-09-07T10:25:48.870Z,65.44
2022-09-07T10:28:22.544Z,65.21
2022-09-07T10:31:15.331Z,66.56
2022-09-07T10:36:49.919Z,65.05
2022-09-07T10:39:31.545Z,63.20
2022-09-07T10:42:29.060Z,65.23
2022-09-07T10:45:10.745Z,61.41
2022-09-07T10:47:52.449Z,58.25
2022-09-07T10:50:31.904Z,60.52
2022-09-07T10:53:43.109Z,61.06
2022-09-07T10:56:35.530Z,59.47
2022-09-07T11:02:38.314Z,58.92
2022-09-07T11:05:38.516Z,59.36
2022-09-07T11:09:14.607Z,59.44
2022-09-07T11:14:20.944Z,58.99
2022-09-07T11:16:55.434Z,56.00
2022-09-07T11:19:38.224Z,57.90
2022-09-07T11:22:28.100Z,57.46
2022-09-07T11:28:01.705Z,59.56
2022-09-07T11:30:40.847Z,61.26
2022-09-07T11:33:20.846Z,58.89
2022-09-07T11:36:12.237Z,58.33
2022-09-07T11:38:45.603Z,57.27
2022-09-07T11:41:15.174Z,56.79
2022-09-07T11:43:55.847Z,57.93
2022-09-07T11:46:28.149Z,58.17
2022-09-07T11:48:58.576Z,61.66
2022-09-07T11:51:53.690Z,62.53
2022-09-07T11:54:23.271Z,60.70
2022-09-07T11:57:18.954Z,60.81
2022-09-07T12:00:05.728Z,61.94
2022-09-07T12:03:09.851Z,61.98
2022-09-07T12:06:01.136Z,63.15
2022-09-07T12:08:58.598Z,61.88
2022-09-07T12:11:56.157Z,59.03
2022-09-07T12:14:28.486Z,61.28
2022-09-07T12:17:08.475Z,57.95
2022-09-07T12:19:35.293Z,58.76
2022-09-07T12:22:02.031Z,55.60
2022-09-07T12:24:54.398Z,55.42
2022-09-07T12:27:20.872Z,53.75
2022-09-07T12:30:11.074Z,54.41
2022-09-07T12:32:55.417Z,57.77
2022-09-07T12:35:31.639Z,56.24
2022-09-07T12:38:26.898Z,57.99
2022-09-07T12:41:22.963Z,59.37
2022-09-07T12:43:49.504Z,57.30
2022-09-07T12:46:40.396Z,57.53
2022-09-07T12:49:18.814Z,56.33
2022-09-07T12:52:16.216Z,57.40
2022-09-07T12:55:26.571Z,56.09
2022-09-07T12:58:11.581Z,55.98
2022-09-07T13:01:15.392Z,54.49
2022-09-07T13:03:51.920Z,55.08
2022-09-07T13:09:34.819Z,52.86
2022-09-07T13:15:09.621Z,53.74
2022-09-07T13:17:42.947Z,52.35
2022-09-07T13:20:09.387Z,52.62
2022-09-07T13:22:36.013Z,50.50
2022-09-07T13:25:20.202Z,50.20
2022-09-07T13:28:00.754Z,50.43
2022-09-07T13:30:33.467Z,50.44
2022-09-07T13:33:24.745Z,49.57
2022-09-07T13:36:05.733Z,50.23
2022-09-07T13:38:34.896Z,48.90
2022-09-07T13:41:13.387Z,50.88
2022-09-07T13:43:40.319Z,51.57
2022-09-07T13:46:40.591Z,51.01
2022-09-07T13:49:27.685Z,50.51
2022-09-07T13:52:19.191Z,52.19
2022-09-07T13:55:13.176Z,52.31
2022-09-07T13:58:06.315Z,53.17
2022-09-07T14:00:34.089Z,51.77
2022-09-07T14:03:05.696Z,53.40
2022-09-07T14:05:32.286Z,53.82
2022-09-07T14:07:59.048Z,53.78
2022-09-07T14:10:26.526Z,54.92
2022-09-07T14:13:14.108Z,56.50
2022-09-07T14:15:48.008Z,57.41
2022-09-07T14:18:16.065Z,57.44
2022-09-07T14:20:46.598Z,53.79
2022-09-07T14:23:19.353Z,55.21
2022-09-07T14:28:37.365Z,58.50
2022-09-07T14:31:05.947Z,58.66
2022-09-07T14:33:32.929Z,59.38
2022-09-07T14:35:59.905Z,59.09
2022-09-07T14:41:18.862Z,61.37
2022-09-07T14:43:56.725Z,60.57
2022-09-07T14:46:29.326Z,58.24
2022-09-07T14:48:57.982Z,60.07
2022-09-07T14:51:35.216Z,60.35
2022-09-07T14:54:05.978Z,58.32
2022-09-07T14:56:39.201Z,58.56
2022-09-07T14:59:32.887Z,61.12
2022-09-07T15:02:18.360Z,62.07
2022-09-07T15:04:50.670Z,61.38
2022-09-07T15:07:40.170Z,62.88
2022-09-07T15:10:26.765Z,62.52
2022-09-07T15:12:56.206Z,62.57
2022-09-07T15:15:34.583Z,62.23
2022-09-07T15:18:25.610Z,63.26
2022-09-07T15:20:52.917Z,61.22
2022-09-07T15:23:20.043Z,61.22
2022-09-07T15:25:53.478Z,59.07
2022-09-07T15:34:11.442Z,58.64
2022-09-07T15:36:40.704Z,57.66
2022-09-07T15:39:13.434Z,57.76
2022-09-07T15:41:39.931Z,57.77
2022-09-07T15:44:06.438Z,57.39
2022-09-07T15:46:33.092Z,56.70
2022-09-07T15:49:01.682Z,58.64
2022-09-07T15:54:17.247Z,57.27
2022-09-07T15:57:48.111Z,58.28
2022-09-07T15:59:30.721Z,58.01
2022-09-07T16:01:58.151Z,59.60
2022-09-07T16:04:25.193Z,58.76
2022-09-07T16:06:51.834Z,61.00
2022-09-07T16:09:21.688Z,61.22
2022-09-07T16:11:50.073Z,61.04
2022-09-07T16:14:17.555Z,62.15
2022-09-07T16:19:34.618Z,64.76
2022-09-07T16:22:01.855Z,66.07
2022-09-07T16:24:28.762Z,66.62
2022-09-07T16:26:55.398Z,68.98
2022-09-07T16:29:21.932Z,68.31
2022-09-07T16:34:35.255Z,69.18
2022-09-07T16:37:01.841Z,69.56
2022-09-07T16:39:29.197Z,69.77
2022-09-07T16:41:55.962Z,71.06
2022-09-07T16:44:22.681Z,71.95
2022-09-07T16:46:50.419Z,72.17
2022-09-07T16:49:17.814Z,71.71
2022-09-07T16:51:45.783Z,72.27
2022-09-07T16:54:13.667Z,72.24
2022-09-07T16:56:40.308Z,72.29
2022-09-07T16:59:09.639Z,72.27
2022-09-07T17:01:40.268Z,73.08
2022-09-07T17:04:10.945Z,73.41
2022-09-07T17:06:38.964Z,73.69
2022-09-07T17:09:06.346Z,72.24
2022-09-07T17:11:34.885Z,72.82
2022-09-07T17:14:01.966Z,73.75
2022-09-07T17:16:31.295Z,74.75
2022-09-07T17:21:46.443Z,72.96
2022-09-07T17:24:13.093Z,72.57
2022-09-07T17:26:42.150Z,72.55
2022-09-07T17:29:10.408Z,72.79
2022-09-07T17:34:24.435Z,73.58
2022-09-07T17:36:51.589Z,74.62
2022-09-07T17:39:19.277Z,75.95
2022-09-07T17:41:48.477Z,75.64
2022-09-07T17:44:15.796Z,76.03
2022-09-07T17:46:42.371Z,74.46
2022-09-07T17:49:12.412Z,74.75
2022-09-07T17:51:39.695Z,76.08
2022-09-07T17:54:11.417Z,75.42
2022-09-07T17:56:39.847Z,75.47
2022-09-07T18:01:54.439Z,74.45
2022-09-07T18:04:21.738Z,73.00
2022-09-07T18:06:48.459Z,69.92
2022-09-07T18:09:15.038Z,69.15
2022-09-07T18:11:45.407Z,69.16
2022-09-07T18:14:14.579Z,69.36
2022-09-07T18:16:43.173Z,68.90
2022-09-07T18:19:11.974Z,70.13
2022-09-07T18:21:41.205Z,71.18
2022-09-07T18:24:20.197Z,71.80
2022-09-07T18:26:50.409Z,71.52
2022-09-07T18:29:28.695Z,71.07
2022-09-07T18:31:57.954Z,70.61
2022-09-07T18:34:24.605Z,72.00
2022-09-07T18:36:51.313Z,71.48
2022-09-07T18:39:18.397Z,71.76
2022-09-07T18:41:45.131Z,71.32
2022-09-07T18:46:58.439Z,72.36
2022-09-07T18:49:25.264Z,73.28
2022-09-07T18:54:41.418Z,77.21
2022-09-07T18:57:08.197Z,78.21
2022-09-07T18:59:34.733Z,79.64
2022-09-07T19:02:04.928Z,79.21
2022-09-07T19:07:20.919Z,81.97
2022-09-07T19:09:48.250Z,81.28
2022-09-07T19:12:15.182Z,81.46
2022-09-07T19:14:42.287Z,84.48
2022-09-07T19:17:11.109Z,85.24
2022-09-07T19:19:38.739Z,86.03
2022-09-07T19:22:06.048Z,85.99
2022-09-07T19:24:33.399Z,86.79
2022-09-07T19:27:01.050Z,86.03
2022-09-07T19:29:28.218Z,85.52
2022-09-07T19:32:07.819Z,85.60
2022-09-07T19:34:42.998Z,87.75
2022-09-07T19:37:11.579Z,87.83
2022-09-07T19:39:38.176Z,86.63
2022-09-07T19:42:05.962Z,86.96
2022-09-07T19:44:32.860Z,86.79
2022-09-07T19:47:00.660Z,86.54
2022-09-07T19:49:27.966Z,86.74
2022-09-07T19:51:54.849Z,85.13
2022-09-07T19:54:21.763Z,84.33
2022-09-07T19:56:48.443Z,85.07
2022-09-07T19:59:15.102Z,86.48
2022-09-07T20:01:46.026Z,86.44
2022-09-07T20:04:19.686Z,86.81
2022-09-07T20:06:49.815Z,83.84
2022-09-07T20:09:18.245Z,86.06
2022-09-07T20:11:46.951Z,87.17
2022-09-07T20:14:17.284Z,86.80
2022-09-07T20:16:44.121Z,85.46
2022-09-07T20:19:11.926Z,85.46
2022-09-07T20:21:38.711Z,85.26
2022-09-07T20:24:05.784Z,85.54
2022-09-07T20:26:32.959Z,86.68
2022-09-07T20:29:25.679Z,87.24
2022-09-07T20:31:47.108Z,87.27
2022-09-07T20:34:14.534Z,87.17
2022-09-07T20:36:41.387Z,86.73
2022-09-07T20:39:08.545Z,85.79
2022-09-07T20:41:35.404Z,86.46
2022-09-07T20:44:04.214Z,87.35
2022-09-07T20:46:31.585Z,88.69
2022-09-07T20:48:58.654Z,88.94
2022-09-07T20:51:25.927Z,87.59
2022-09-07T20:53:52.794Z,85.97
2022-09-07T20:56:21.677Z,86.12
2022-09-07T20:58:49.519Z,86.92
2022-09-07T21:01:18.121Z,89.02
2022-09-07T21:03:49.706Z,90.14
2022-09-07T21:06:17.798Z,89.79
2022-09-07T21:08:45.829Z,89.34
2022-09-07T21:11:19.334Z,88.93
2022-09-07T21:13:46.949Z,88.55
2022-09-07T21:16:16.296Z,87.92
2022-09-07T21:18:44.484Z,88.10
2022-09-07T21:21:20.565Z,88.52
2022-09-07T21:23:48.045Z,88.94
2022-09-07T21:26:14.802Z,88.52
2022-09-07T21:28:41.352Z,87.28
2022-09-07T21:31:09.351Z,86.08
2022-09-07T21:33:37.683Z,86.95
2022-09-07T21:36:06.245Z,88.10
2022-09-07T21:38:34.733Z,89.95
2022-09-07T21:41:12.795Z,90.57
2022-09-07T21:43:39.978Z,91.11
2022-09-07T21:46:11.523Z,91.39
2022-09-07T21:48:38.529Z,90.75
2022-09-07T21:51:05.666Z,91.60
2022-09-07T21:53:32.658Z,91.50
2022-09-07T21:56:01.847Z,92.55
2022-09-07T21:58:29.403Z,91.52
2022-09-07T22:00:57.153Z,91.14
2022-09-07T22:03:25.251Z,90.43
2022-09-07T22:05:52.711Z,90.23
2022-09-07T22:08:19.614Z,88.57
2022-09-07T22:10:46.622Z,88.82
2022-09-07T22:13:13.414Z,89.51
2022-09-07T22:15:41.632Z,89.13
2022-09-07T22:18:11.987Z,86.27
2022-09-07T22:20:38.892Z,86.66
2022-09-07T22:23:05.865Z,86.21
2022-09-07T22:25:33.223Z,86.98
2022-09-07T22:27:59.963Z,89.81
2022-09-07T22:30:26.776Z,89.56
2022-09-07T22:32:53.620Z,89.13
2022-09-07T22:35:20.813Z,89.71
2022-09-07T22:37:47.368Z,89.76
2022-09-07T22:40:14.959Z,90.00
2022-09-07T22:42:41.991Z,88.81
2022-09-07T22:45:09.257Z,89.83
2022-09-07T22:47:35.786Z,90.51
2022-09-07T22:50:02.322Z,89.07
2022-09-07T22:52:28.879Z,90.87
2022-09-07T22:54:55.407Z,91.03
2022-09-07T22:57:21.985Z,91.31
2022-09-07T22:59:48.602Z,90.79
2022-09-07T23:02:15.190Z,91.10
2022-09-07T23:04:41.777Z,92.04
2022-09-07T23:07:08.494Z,91.58
2022-09-07T23:09:35.070Z,91.27
2022-09-07T23:12:01.798Z,92.40
2022-09-07T23:14:28.401Z,91.95
2022-09-07T23:16:54.989Z,91.06
2022-09-07T23:19:21.663Z,90.85
2022-09-07T23:21:48.451Z,91.18
2022-09-07T23:24:18.039Z,89.65
2022-09-07T23:26:44.838Z,90.14
2022-09-07T23:29:13.491Z,90.04
2022-09-07T23:31:40.983Z,90.69
2022-09-07T23:34:07.877Z,90.10
2022-09-07T23:36:34.597Z,90.40
2022-09-07T23:39:01.445Z,91.13
2022-09-07T23:41:28.866Z,90.84
2022-09-07T23:43:55.898Z,89.91
2022-09-07T23:46:23.084Z,89.64
2022-09-07T23:48:50.268Z,91.58
2022-09-07T23:51:22.777Z,91.37
2022-09-07T23:53:50.525Z,91.88
2022-09-07T23:56:17.407Z,92.70
2022-09-07T23:58:44.037Z,92.45
